createdAt,value
2018-07-24T00:00:35.479Z,8.00
2018-07-24T00:03:05.230Z,8.00
2018-07-24T00:05:34.812Z,7.90
2018-07-24T00:08:04.397Z,8.23
2018-07-24T00:10:34.412Z,8.50
2018-07-24T00:13:03.936Z,8.20
2018-07-24T00:15:34.025Z,9.50
2018-07-24T00:18:03.569Z,9.30
2018-07-24T00:20:33.141Z,10.03
2018-07-24T00:23:02.684Z,10.00
2018-07-24T00:25:32.201Z,10.60
2018-07-24T00:28:01.752Z,11.07
2018-07-24T00:30:31.334Z,11.43
2018-07-24T00:33:00.877Z,10.50
2018-07-24T00:35:30.386Z,10.87
2018-07-24T00:37:59.924Z,10.43
2018-07-24T00:40:29.464Z,10.27
2018-07-24T00:42:58.993Z,10.80
2018-07-24T00:45:28.537Z,10.73
2018-07-24T00:47:58.101Z,10.10
2018-07-24T00:50:27.613Z,10.57
2018-07-24T00:52:57.152Z,11.50
2018-07-24T00:55:26.687Z,11.60
2018-07-24T00:57:56.223Z,10.03
2018-07-24T01:00:25.785Z,10.90
2018-07-24T01:02:55.324Z,11.30
2018-07-24T01:05:24.828Z,10.90
2018-07-24T01:07:54.401Z,12.07
2018-07-24T01:10:23.977Z,11.17
2018-07-24T01:12:53.564Z,11.27
2018-07-24T01:15:23.084Z,10.93
2018-07-24T01:17:52.928Z,12.23
2018-07-24T01:20:22.613Z,11.60
2018-07-24T01:22:52.230Z,10.93
2018-07-24T01:25:21.749Z,10.87
2018-07-24T01:27:51.304Z,11.10
2018-07-24T01:30:20.812Z,10.50
2018-07-24T01:32:50.377Z,10.63
2018-07-24T01:35:19.876Z,10.60
2018-07-24T01:37:49.404Z,11.93
2018-07-24T01:40:19.069Z,11.10
2018-07-24T01:42:48.586Z,10.53
2018-07-24T01:45:18.152Z,10.87
2018-07-24T01:47:47.697Z,11.17
2018-07-24T01:50:17.292Z,11.50
2018-07-24T01:52:46.806Z,11.33
2018-07-24T01:55:16.345Z,12.27
2018-07-24T01:57:45.913Z,12.50
2018-07-24T02:00:17.401Z,11.73
2018-07-24T02:02:46.924Z,12.17
2018-07-24T02:05:16.544Z,12.47
2018-07-24T02:07:46.080Z,13.00
2018-07-24T02:10:15.761Z,14.50
2018-07-24T02:12:45.322Z,13.40
2018-07-24T02:15:14.817Z,13.77
2018-07-24T02:17:44.350Z,14.00
2018-07-24T02:20:13.844Z,13.70
2018-07-24T02:22:43.412Z,13.53
2018-07-24T02:25:12.951Z,18.57
2018-07-24T02:27:42.461Z,17.33
2018-07-24T02:30:11.993Z,15.20
2018-07-24T02:32:41.548Z,13.50
2018-07-24T02:35:11.148Z,14.07
2018-07-24T02:37:40.660Z,14.43
2018-07-24T02:40:10.236Z,13.37
2018-07-24T02:42:39.793Z,15.43
2018-07-24T02:45:09.750Z,16.03
2018-07-24T02:47:39.352Z,15.57
2018-07-24T02:50:08.909Z,14.97
2018-07-24T02:52:38.442Z,15.00
2018-07-24T02:55:08.070Z,16.57
2018-07-24T02:57:37.625Z,15.07
2018-07-24T03:00:07.289Z,13.57
2018-07-24T03:02:36.803Z,13.83
2018-07-24T03:05:06.705Z,14.07
2018-07-24T03:07:36.211Z,15.20
2018-07-24T03:10:05.858Z,14.90
2018-07-24T03:12:35.502Z,14.37
2018-07-24T03:15:05.138Z,11.10
2018-07-24T03:17:34.653Z,14.53
2018-07-24T03:20:04.271Z,13.77
2018-07-24T03:22:33.816Z,12.90
2018-07-24T03:25:03.608Z,13.23
2018-07-24T03:27:33.152Z,14.43
2018-07-24T03:30:02.672Z,15.30
2018-07-24T03:32:32.871Z,15.53
2018-07-24T03:35:02.373Z,15.73
2018-07-24T03:37:32.486Z,12.80
2018-07-24T03:40:02.041Z,16.60
2018-07-24T03:42:31.705Z,15.57
2018-07-24T03:45:01.336Z,15.83
2018-07-24T03:47:31.196Z,15.50
2018-07-24T03:50:00.729Z,14.47
2018-07-24T03:52:30.457Z,15.03
2018-07-24T03:55:00.000Z,14.07
2018-07-24T03:57:29.593Z,15.23
2018-07-24T03:59:59.125Z,15.13
2018-07-24T04:02:28.748Z,16.30
2018-07-24T04:04:58.207Z,14.43
2018-07-24T04:07:27.754Z,15.20
2018-07-24T04:09:57.304Z,13.63
2018-07-24T04:12:26.833Z,14.57
2018-07-24T04:14:56.347Z,15.57
2018-07-24T04:17:25.866Z,13.43
2018-07-24T04:19:55.388Z,16.30
2018-07-24T04:22:24.957Z,15.80
2018-07-24T04:24:54.460Z,15.13
2018-07-24T04:27:23.970Z,14.57
2018-07-24T04:29:53.497Z,15.90
2018-07-24T04:32:23.076Z,15.27
2018-07-24T04:34:52.597Z,16.57
2018-07-24T04:37:22.194Z,14.20
2018-07-24T04:39:51.853Z,14.70
2018-07-24T04:42:21.422Z,14.27
2018-07-24T04:44:51.004Z,14.40
2018-07-24T04:47:20.574Z,15.77
2018-07-24T04:49:50.165Z,16.47
2018-07-24T04:52:19.852Z,15.90
2018-07-24T04:54:49.427Z,15.07
2018-07-24T04:57:18.957Z,15.83
2018-07-24T04:59:48.473Z,15.60
2018-07-24T05:02:17.976Z,13.73
2018-07-24T05:04:47.643Z,14.70
2018-07-24T05:07:17.185Z,15.20
2018-07-24T05:09:47.040Z,14.50
2018-07-24T05:12:16.929Z,15.40
2018-07-24T05:14:46.750Z,14.17
2018-07-24T05:17:16.286Z,13.07
2018-07-24T05:19:45.876Z,13.60
2018-07-24T05:22:15.456Z,13.20
2018-07-24T05:24:45.105Z,13.67
2018-07-24T05:27:14.709Z,13.20
2018-07-24T05:29:44.226Z,13.57
2018-07-24T05:32:13.812Z,13.33
2018-07-24T05:34:43.445Z,12.43
2018-07-24T05:37:12.942Z,11.33
2018-07-24T05:39:42.491Z,10.93
2018-07-24T05:42:12.001Z,10.63
2018-07-24T05:44:41.568Z,11.07
2018-07-24T05:47:11.165Z,11.47
2018-07-24T05:49:40.680Z,10.97
2018-07-24T05:52:10.241Z,10.70
2018-07-24T05:54:39.327Z,10.53
2018-07-24T05:57:08.308Z,10.00
2018-07-24T05:59:37.310Z,9.67
2018-07-24T06:02:06.742Z,8.23
2018-07-24T06:04:36.314Z,8.00
2018-07-24T06:07:05.924Z,7.47
2018-07-24T06:09:35.489Z,7.27
2018-07-24T06:12:05.021Z,6.77
2018-07-24T06:14:34.545Z,6.77
2018-07-24T06:17:04.102Z,6.70
2018-07-24T06:19:33.637Z,7.53
2018-07-24T06:22:03.229Z,7.30
2018-07-24T06:24:32.776Z,7.00
2018-07-24T06:27:02.317Z,7.03
2018-07-24T06:29:31.908Z,6.70
2018-07-24T06:32:01.447Z,6.63
2018-07-24T06:34:30.960Z,6.47
2018-07-24T06:37:00.544Z,7.83
2018-07-24T06:39:30.040Z,7.73
2018-07-24T06:41:59.631Z,7.20
2018-07-24T06:44:28.716Z,6.97
2018-07-24T06:46:58.150Z,7.03
2018-07-24T06:49:27.681Z,6.67
2018-07-24T06:51:57.285Z,6.37
2018-07-24T06:54:26.768Z,6.63
2018-07-24T06:56:55.852Z,5.83
2018-07-24T06:59:25.276Z,6.27
2018-07-24T07:01:54.882Z,5.93
2018-07-24T07:04:24.462Z,5.67
2018-07-24T07:06:54.317Z,5.80
2018-07-24T07:09:23.937Z,5.57
2018-07-24T07:11:53.598Z,5.73
2018-07-24T07:14:23.166Z,5.47
2018-07-24T07:16:53.029Z,5.13
2018-07-24T07:19:22.581Z,5.47
2018-07-24T07:21:52.593Z,5.07
2018-07-24T07:24:22.180Z,4.50
2018-07-24T07:26:51.693Z,4.57
2018-07-24T07:29:21.287Z,4.67
2018-07-24T07:31:50.390Z,3.33
2018-07-24T07:34:19.816Z,3.40
2018-07-24T07:36:49.310Z,5.07
2018-07-24T07:39:18.975Z,3.33
2018-07-24T07:41:48.509Z,3.00
2018-07-24T07:44:18.152Z,3.23
2018-07-24T07:46:47.760Z,3.30
2018-07-24T07:49:17.240Z,3.23
2018-07-24T07:51:46.861Z,4.70
2018-07-24T07:54:16.363Z,4.73
2018-07-24T07:56:45.885Z,3.80
2018-07-24T07:59:15.398Z,3.47
2018-07-24T08:01:44.896Z,3.80
2018-07-24T08:04:14.469Z,3.50
2018-07-24T08:06:44.613Z,3.20
2018-07-24T08:09:14.121Z,3.03
2018-07-24T08:11:43.616Z,3.27
2018-07-24T08:14:13.249Z,3.33
2018-07-24T08:16:42.735Z,3.80
2018-07-24T08:19:12.273Z,4.13
2018-07-24T08:21:41.927Z,4.10
2018-07-24T08:24:11.560Z,4.22
2018-07-24T08:26:41.100Z,3.83
2018-07-24T08:29:10.708Z,4.33
2018-07-24T08:31:40.285Z,3.87
2018-07-24T08:34:09.885Z,4.37
2018-07-24T08:36:39.420Z,4.37
2018-07-24T08:39:11.185Z,3.03
2018-07-24T08:41:41.249Z,3.63
2018-07-24T08:44:10.906Z,4.20
2018-07-24T08:46:40.495Z,3.37
2018-07-24T08:49:10.220Z,5.00
2018-07-24T08:51:39.808Z,2.42
2018-07-24T08:54:09.535Z,1.80
2018-07-24T08:56:45.204Z,2.80
2018-07-24T08:59:14.644Z,2.90
2018-07-24T09:01:44.153Z,2.85
2018-07-24T09:04:13.726Z,3.15
2018-07-24T09:06:43.306Z,3.02
2018-07-24T09:09:13.479Z,3.52
2018-07-24T09:11:43.364Z,2.45
2018-07-24T09:14:12.925Z,2.02
2018-07-24T09:16:42.419Z,1.70
2018-07-24T09:19:11.925Z,1.50
2018-07-24T09:21:41.496Z,1.60
2018-07-24T09:24:11.301Z,1.50
2018-07-24T09:26:40.858Z,1.80
2018-07-24T09:29:10.353Z,1.75
2018-07-24T09:31:39.865Z,1.70
2018-07-24T09:34:09.905Z,1.52
2018-07-24T09:36:39.420Z,1.70
2018-07-24T09:39:10.383Z,1.90
2018-07-24T09:41:40.277Z,1.90
2018-07-24T09:44:10.600Z,1.67
2018-07-24T09:46:40.129Z,2.87
2018-07-24T09:49:10.301Z,2.37
2018-07-24T09:51:39.831Z,1.95
2018-07-24T09:54:09.773Z,2.00
2018-07-24T09:56:39.298Z,2.40
2018-07-24T09:59:09.404Z,2.35
2018-07-24T10:01:38.904Z,1.90
2018-07-24T10:04:08.493Z,1.80
2018-07-24T10:06:38.023Z,2.10
2018-07-24T10:09:09.492Z,1.98
2018-07-24T10:11:39.133Z,2.50
2018-07-24T10:14:08.638Z,2.20
2018-07-24T10:16:37.715Z,2.35
2018-07-24T10:19:07.179Z,2.45
2018-07-24T10:21:36.706Z,2.08
2018-07-24T10:24:06.291Z,2.30
2018-07-24T10:26:35.821Z,2.08
2018-07-24T10:29:05.312Z,1.62
2018-07-24T10:31:34.798Z,1.17
2018-07-24T10:34:04.351Z,1.12
2018-07-24T10:36:34.014Z,1.42
2018-07-24T10:39:03.713Z,1.15
2018-07-24T10:41:33.245Z,1.32
2018-07-24T10:44:02.829Z,1.30
2018-07-24T10:46:32.449Z,1.20
2018-07-24T10:49:01.976Z,1.50
2018-07-24T10:51:32.265Z,1.30
2018-07-24T10:54:01.817Z,1.87
2018-07-24T10:56:31.747Z,1.57
2018-07-24T10:59:01.336Z,2.35
2018-07-24T11:01:30.830Z,2.10
2018-07-24T11:04:00.328Z,1.95
2018-07-24T11:06:29.867Z,2.08
2018-07-24T11:08:59.422Z,1.90
2018-07-24T11:11:28.981Z,1.70
2018-07-24T11:13:58.534Z,2.05
2018-07-24T11:16:28.050Z,1.55
2018-07-24T11:18:58.089Z,1.70
2018-07-24T11:21:27.635Z,1.70
2018-07-24T11:23:58.217Z,1.85
2018-07-24T11:26:27.722Z,2.08
2018-07-24T11:28:57.258Z,2.00
2018-07-24T11:31:26.768Z,1.87
2018-07-24T11:33:56.268Z,2.08
2018-07-24T11:36:25.789Z,2.10
2018-07-24T11:38:55.302Z,1.80
2018-07-24T11:41:24.855Z,1.72
2018-07-24T11:43:54.372Z,1.85
2018-07-24T11:46:23.963Z,2.00
2018-07-24T11:48:53.475Z,1.42
2018-07-24T11:51:23.016Z,1.82
2018-07-24T11:53:52.593Z,1.72
2018-07-24T11:56:22.108Z,1.90
2018-07-24T11:58:51.687Z,1.60
2018-07-24T12:01:21.246Z,1.72
2018-07-24T12:03:50.828Z,2.20
2018-07-24T12:06:20.598Z,2.12
2018-07-24T12:08:50.113Z,2.12
2018-07-24T12:11:19.688Z,2.08
2018-07-24T12:13:49.224Z,1.90
2018-07-24T12:16:19.144Z,1.72
2018-07-24T12:18:48.732Z,2.15
2018-07-24T12:21:21.143Z,1.77
2018-07-24T12:23:50.691Z,1.85
2018-07-24T12:26:20.360Z,1.80
2018-07-24T12:28:49.973Z,1.92
2018-07-24T12:31:19.513Z,1.77
2018-07-24T12:33:49.085Z,1.77
2018-07-24T12:36:18.894Z,1.80
2018-07-24T12:38:48.399Z,2.08
2018-07-24T12:41:17.994Z,1.70
2018-07-24T12:43:47.509Z,1.80
2018-07-24T12:46:17.013Z,1.60
2018-07-24T12:48:46.582Z,1.72
2018-07-24T12:51:16.338Z,1.40
2018-07-24T12:53:46.083Z,1.42
2018-07-24T12:56:15.821Z,1.57
2018-07-24T12:58:45.379Z,1.32
2018-07-24T13:01:14.991Z,1.50
2018-07-24T13:03:44.174Z,1.77
2018-07-24T13:06:13.707Z,1.60
2018-07-24T13:08:43.319Z,1.77
2018-07-24T13:11:13.101Z,1.77
2018-07-24T13:13:42.660Z,1.60
2018-07-24T13:16:12.145Z,1.80
2018-07-24T13:18:41.894Z,2.00
2018-07-24T13:21:11.456Z,1.60
2018-07-24T13:23:40.500Z,1.62
2018-07-24T13:26:09.961Z,1.98
2018-07-24T13:28:39.593Z,1.60
2018-07-24T13:31:09.129Z,1.60
2018-07-24T13:33:38.709Z,1.72
2018-07-24T13:36:08.273Z,1.80
2018-07-24T13:38:37.828Z,1.80
2018-07-24T13:41:07.512Z,2.10
2018-07-24T13:43:37.135Z,1.60
2018-07-24T13:46:06.755Z,1.95
2018-07-24T13:48:36.276Z,1.70
2018-07-24T13:51:05.816Z,1.80
2018-07-24T13:53:35.396Z,1.77
2018-07-24T13:56:04.940Z,1.60
2018-07-24T13:58:34.506Z,1.75
2018-07-24T14:01:04.073Z,1.95
2018-07-24T14:03:33.713Z,2.08
2018-07-24T14:06:03.331Z,2.22
2018-07-24T14:08:33.581Z,1.92
2018-07-24T14:11:03.052Z,2.02
2018-07-24T14:13:32.754Z,1.92
2018-07-24T14:16:02.277Z,2.27
2018-07-24T14:18:32.145Z,1.90
2018-07-24T14:21:01.212Z,1.70
2018-07-24T14:23:30.619Z,1.92
2018-07-24T14:26:00.209Z,2.00
2018-07-24T14:28:29.793Z,1.92
2018-07-24T14:30:59.302Z,1.80
2018-07-24T14:33:28.884Z,2.08
2018-07-24T14:35:58.496Z,1.98
2018-07-24T14:38:28.092Z,2.45
2018-07-24T14:40:57.705Z,2.20
2018-07-24T14:43:27.488Z,1.67
2018-07-24T14:45:57.048Z,1.92
2018-07-24T14:48:26.532Z,2.05
2018-07-24T14:50:56.157Z,2.42
2018-07-24T14:53:25.733Z,2.10
2018-07-24T14:55:55.326Z,2.42
2018-07-24T14:58:24.880Z,2.27
2018-07-24T15:00:54.456Z,2.00
2018-07-24T15:03:24.000Z,2.42
2018-07-24T15:05:53.500Z,2.30
2018-07-24T15:08:23.032Z,2.20
2018-07-24T15:10:52.589Z,2.17
2018-07-24T15:13:22.149Z,2.33
2018-07-24T15:15:51.777Z,2.62
2018-07-24T15:18:21.346Z,2.17
2018-07-24T15:20:51.018Z,2.33
2018-07-24T15:23:20.536Z,2.62
2018-07-24T15:25:50.049Z,2.30
2018-07-24T15:28:19.643Z,2.50
2018-07-24T15:30:48.716Z,2.45
2018-07-24T15:33:18.181Z,2.17
2018-07-24T15:35:47.707Z,2.10
2018-07-24T15:38:17.301Z,2.10
2018-07-24T15:40:46.856Z,1.87
2018-07-24T15:43:16.423Z,2.33
2018-07-24T15:45:46.024Z,2.02
2018-07-24T15:48:15.536Z,2.17
2018-07-24T15:50:45.137Z,2.12
2018-07-24T15:53:14.758Z,2.00
2018-07-24T15:55:44.870Z,2.00
2018-07-24T15:58:14.408Z,1.87
2018-07-24T16:00:44.004Z,2.35
2018-07-24T16:03:13.627Z,2.10
2018-07-24T16:05:43.222Z,2.20
2018-07-24T16:08:12.800Z,2.15
2018-07-24T16:10:42.358Z,2.27
2018-07-24T16:13:11.972Z,2.20
2018-07-24T16:15:41.708Z,1.95
2018-07-24T16:18:11.870Z,1.98
2018-07-24T16:20:41.401Z,2.20
2018-07-24T16:23:10.972Z,2.10
2018-07-24T16:25:40.481Z,2.40
2018-07-24T16:28:10.054Z,2.27
2018-07-24T16:30:39.718Z,2.40
2018-07-24T16:33:09.321Z,2.12
2018-07-24T16:35:38.948Z,2.35
2018-07-24T16:38:08.525Z,2.10
2018-07-24T16:40:38.477Z,2.40
2018-07-24T16:43:08.082Z,2.17
2018-07-24T16:45:37.627Z,2.20
2018-07-24T16:48:07.126Z,2.22
2018-07-24T16:50:36.761Z,2.67
2018-07-24T16:53:06.670Z,2.40
2018-07-24T16:55:36.197Z,2.27
2018-07-24T16:58:05.765Z,2.70
2018-07-24T17:00:35.268Z,2.30
2018-07-24T17:03:04.883Z,2.45
2018-07-24T17:05:34.369Z,2.15
2018-07-24T17:08:03.973Z,2.60
2018-07-24T17:10:33.497Z,4.30
2018-07-24T17:13:03.025Z,3.00
2018-07-24T17:15:32.719Z,2.72
2018-07-24T17:18:02.226Z,2.90
2018-07-24T17:20:31.813Z,3.10
2018-07-24T17:23:01.343Z,2.77
2018-07-24T17:25:30.939Z,3.07
2018-07-24T17:28:00.528Z,3.30
2018-07-24T17:30:30.105Z,3.20
2018-07-24T17:32:59.638Z,3.10
2018-07-24T17:35:29.222Z,3.13
2018-07-24T17:37:58.716Z,2.90
2018-07-24T17:40:28.275Z,3.17
2018-07-24T17:42:57.827Z,3.00
2018-07-24T17:45:27.320Z,3.60
2018-07-24T17:47:56.819Z,3.30
2018-07-24T17:50:26.402Z,3.03
2018-07-24T17:52:55.950Z,3.30
2018-07-24T17:55:26.156Z,3.60
2018-07-24T17:57:55.663Z,3.50
2018-07-24T18:00:25.170Z,3.47
2018-07-24T18:02:54.870Z,3.20
2018-07-24T18:05:24.448Z,2.97
2018-07-24T18:07:54.235Z,3.20
2018-07-24T18:10:23.859Z,3.30
2018-07-24T18:12:53.875Z,3.30
2018-07-24T18:15:23.442Z,3.17
2018-07-24T18:17:53.103Z,3.50
2018-07-24T18:20:22.740Z,4.00
2018-07-24T18:22:52.257Z,3.30
2018-07-24T18:25:21.761Z,3.23
2018-07-24T18:27:51.477Z,3.30
2018-07-24T18:30:21.096Z,2.97
2018-07-24T18:32:50.664Z,3.00
2018-07-24T18:35:20.262Z,3.13
2018-07-24T18:37:49.832Z,3.07
2018-07-24T18:40:19.373Z,2.80
2018-07-24T18:42:48.919Z,3.67
2018-07-24T18:45:18.428Z,3.10
2018-07-24T18:47:47.942Z,3.20
2018-07-24T18:50:17.533Z,2.97
2018-07-24T18:52:47.013Z,3.43
2018-07-24T18:55:16.528Z,3.70
2018-07-24T18:57:46.059Z,3.03
2018-07-24T19:00:21.909Z,3.47
2018-07-24T19:02:51.460Z,3.37
2018-07-24T19:05:21.017Z,3.43
2018-07-24T19:07:50.528Z,3.63
2018-07-24T19:10:20.153Z,3.67
2018-07-24T19:12:49.681Z,3.63
2018-07-24T19:15:19.252Z,3.87
2018-07-24T19:17:48.889Z,3.53
2018-07-24T19:20:18.492Z,3.30
2018-07-24T19:22:48.106Z,3.37
2018-07-24T19:25:17.727Z,3.60
2018-07-24T19:27:47.307Z,3.43
2018-07-24T19:30:16.978Z,3.60
2018-07-24T19:32:46.795Z,3.20
2018-07-24T19:35:16.409Z,3.30
2018-07-24T19:37:46.169Z,3.57
2018-07-24T19:40:15.340Z,3.20
2018-07-24T19:42:44.841Z,3.07
2018-07-24T19:45:14.637Z,3.30
2018-07-24T19:47:44.416Z,3.27
2018-07-24T19:50:14.964Z,3.43
2018-07-24T19:52:44.582Z,3.37
2018-07-24T19:55:13.741Z,3.40
2018-07-24T19:57:43.313Z,3.53
2018-07-24T20:00:12.963Z,3.53
2018-07-24T20:02:42.524Z,3.53
2018-07-24T20:05:12.171Z,3.63
2018-07-24T20:07:41.764Z,3.43
2018-07-24T20:10:11.412Z,3.63
2018-07-24T20:12:40.947Z,3.63
2018-07-24T20:15:18.301Z,3.77
2018-07-24T20:17:48.080Z,3.73
2018-07-24T20:20:17.760Z,4.10
2018-07-24T20:22:47.654Z,3.93
2018-07-24T20:25:16.669Z,3.83
2018-07-24T20:27:46.264Z,3.73
2018-07-24T20:30:15.901Z,3.93
2018-07-24T20:32:45.452Z,3.90
2018-07-24T20:35:15.049Z,4.17
2018-07-24T20:37:44.600Z,4.33
2018-07-24T20:40:14.176Z,3.73
2018-07-24T20:42:43.787Z,4.10
2018-07-24T20:45:13.328Z,4.20
2018-07-24T20:47:42.968Z,3.97
2018-07-24T20:50:12.593Z,4.17
2018-07-24T20:52:42.280Z,3.90
2018-07-24T20:55:11.920Z,4.20
2018-07-24T20:57:41.566Z,3.60
2018-07-24T21:00:12.025Z,3.00
2018-07-24T21:02:41.847Z,4.00
2018-07-24T21:05:11.894Z,3.53
2018-07-24T21:07:41.456Z,3.87
2018-07-24T21:10:17.122Z,3.77
2018-07-24T21:12:48.025Z,3.73
2018-07-24T21:15:18.224Z,3.87
2018-07-24T21:17:48.086Z,4.00
2018-07-24T21:20:17.711Z,3.30
2018-07-24T21:22:47.359Z,3.20
2018-07-24T21:25:16.968Z,3.67
2018-07-24T21:27:46.725Z,3.90
2018-07-24T21:30:16.487Z,3.60
2018-07-24T21:32:46.109Z,4.10
2018-07-24T21:35:15.664Z,3.30
2018-07-24T21:37:45.220Z,3.10
2018-07-24T21:40:14.785Z,3.57
2018-07-24T21:42:44.314Z,3.67
2018-07-24T21:45:13.913Z,3.30
2018-07-24T21:47:43.420Z,4.17
2018-07-24T21:50:12.900Z,3.67
2018-07-24T21:52:42.482Z,3.77
2018-07-24T21:55:12.014Z,4.30
2018-07-24T21:57:51.754Z,4.00
2018-07-24T22:00:21.507Z,4.20
2018-07-24T22:02:51.081Z,4.10
2018-07-24T22:05:20.614Z,4.03
2018-07-24T22:07:51.024Z,4.53
2018-07-24T22:10:21.862Z,5.00
2018-07-24T22:12:53.092Z,4.63
2018-07-24T22:15:26.532Z,4.50
2018-07-24T22:17:56.754Z,4.27
2018-07-24T22:20:26.326Z,4.27
2018-07-24T22:22:55.869Z,4.30
2018-07-24T22:25:25.362Z,4.10
2018-07-24T22:27:54.916Z,4.07
2018-07-24T22:30:24.536Z,4.80
2018-07-24T22:32:54.040Z,4.43
2018-07-24T22:35:23.640Z,4.87
2018-07-24T22:37:53.184Z,3.97
2018-07-24T22:40:22.716Z,4.47
2018-07-24T22:42:52.382Z,5.07
2018-07-24T22:45:21.520Z,4.80
2018-07-24T22:47:50.985Z,5.13
2018-07-24T22:50:20.093Z,4.67
2018-07-24T22:52:49.506Z,4.97
2018-07-24T22:55:19.043Z,4.67
2018-07-24T22:57:48.556Z,4.80
2018-07-24T23:00:18.090Z,4.87
2018-07-24T23:02:47.655Z,4.50
2018-07-24T23:05:17.356Z,5.00
2018-07-24T23:07:46.917Z,4.60
2018-07-24T23:10:16.678Z,4.57
2018-07-24T23:12:46.237Z,4.43
2018-07-24T23:15:15.773Z,4.90
2018-07-24T23:17:46.122Z,5.20
2018-07-24T23:20:15.639Z,4.07
2018-07-24T23:22:45.364Z,4.20
2018-07-24T23:25:14.925Z,4.13
2018-07-24T23:27:44.449Z,4.30
2018-07-24T23:30:14.007Z,3.93
2018-07-24T23:32:43.540Z,4.53
2018-07-24T23:35:13.952Z,4.40
2018-07-24T23:37:43.468Z,4.10
2018-07-24T23:40:13.183Z,4.30
2018-07-24T23:42:42.721Z,4.30
2018-07-24T23:45:12.254Z,4.17
2018-07-24T23:47:41.773Z,4.20
2018-07-24T23:50:11.307Z,3.97
2018-07-24T23:52:40.818Z,3.73
2018-07-24T23:55:10.342Z,3.97
2018-07-24T23:57:39.879Z,4.27
